Time;durP1;ratioP1;P1;durP2;ratioP2;P2;SDS_P1;SDS_P2;PMS_P1;PMS_P2;Temp;Humidity;BMP_temperature;BMP_pressure;BME280_temperature;BME280_humidity;BME280_pressure;Samples;Min_cycle;Max_cycle;Signal;HPM_P1;HPM_P2
2021/05/26 00:02:20;;;;;;;3.57;3.27;;;10.20;99.90;;;;;;5055552;28;20614;-64
2021/05/26 00:04:45;;;;;;;5.63;3.77;;;10.10;99.90;;;;;;5054978;28;20323;-65
2021/05/26 00:07:11;;;;;;;3.60;3.13;;;10.10;99.90;;;;;;5055330;28;20526;-65
2021/05/26 00:09:37;;;;;;;5.20;3.77;;;10.20;99.90;;;;;;5055392;28;20650;-62
2021/05/26 00:12:02;;;;;;;4.57;3.93;;;10.40;99.90;;;;;;5037962;28;20263;-67
2021/05/26 00:14:28;;;;;;;3.60;3.30;;;10.30;99.90;;;;;;5037158;28;20181;-64
2021/05/26 00:16:53;;;;;;;3.50;3.20;;;10.20;99.90;;;;;;5055181;28;20181;-64
2021/05/26 00:19:19;;;;;;;3.50;3.00;;;10.20;99.90;;;;;;5055459;28;20180;-67
2021/05/26 00:21:44;;;;;;;3.77;3.03;;;10.20;99.90;;;;;;5037625;28;20246;-67
2021/05/26 00:24:10;;;;;;;5.37;3.87;;;10.10;99.90;;;;;;5054556;28;20606;-64
2021/05/26 00:26:36;;;;;;;7.10;3.87;;;10.10;99.90;;;;;;5054875;28;20250;-64
2021/05/26 00:29:02;;;;;;;3.77;3.47;;;10.10;99.90;;;;;;5037566;28;20473;-64
2021/05/26 00:31:28;;;;;;;4.47;4.07;;;10.30;99.90;;;;;;5055155;28;20181;-67
2021/05/26 00:33:53;;;;;;;4.33;3.93;;;10.30;99.90;;;;;;5036586;28;20563;-67
2021/05/26 00:36:19;;;;;;;5.07;4.57;;;10.30;99.90;;;;;;5037441;28;20714;-65
2021/05/26 00:38:47;;;;;;;6.60;4.53;;;10.20;99.90;;;;;;5054930;28;20191;-64
2021/05/26 00:41:12;;;;;;;4.60;4.20;;;10.30;99.90;;;;;;5037372;28;20527;-65
2021/05/26 00:43:38;;;;;;;5.00;4.50;;;10.20;99.90;;;;;;5054775;28;20177;-64
2021/05/26 00:46:04;;;;;;;6.40;4.90;;;10.30;99.90;;;;;;5053644;28;20633;-64
2021/05/26 00:48:29;;;;;;;6.47;5.17;;;10.20;99.90;;;;;;5054635;28;20181;-65
2021/05/26 00:50:55;;;;;;;5.30;4.90;;;10.10;99.90;;;;;;5054432;28;20212;-65
2021/05/26 00:53:24;;;;;;;8.60;5.80;;;10.10;99.90;;;;;;5054283;28;20518;-64
2021/05/26 00:55:49;;;;;;;5.47;4.97;;;10.10;99.90;;;;;;5053908;28;20251;-64
2021/05/26 00:58:15;;;;;;;6.27;5.67;;;10.40;99.90;;;;;;5054563;28;20284;-64
2021/05/26 01:00:41;;;;;;;6.90;5.60;;;10.40;99.90;;;;;;5054404;28;20177;-64
2021/05/26 01:03:08;;;;;;;6.13;5.53;;;10.30;99.90;;;;;;5054213;28;20185;-65
2021/05/26 01:05:34;;;;;;;7.32;6.35;;;10.40;99.90;;;;;;5053927;28;20183;-65
2021/05/26 01:08:00;;;;;;;7.80;6.23;;;10.30;99.90;;;;;;5054236;28;20189;-64
2021/05/26 01:10:28;;;;;;;6.43;5.83;;;10.30;99.90;;;;;;5054078;28;20873;-65
2021/05/26 01:12:54;;;;;;;7.80;6.20;;;10.30;99.90;;;;;;5054197;28;20423;-64
2021/05/26 01:15:21;;;;;;;6.17;5.57;;;10.50;99.90;;;;;;5036055;28;20251;-65
2021/05/26 01:17:47;;;;;;;6.88;6.28;;;10.40;99.90;;;;;;5053948;28;20453;-65
2021/05/26 01:20:24;;;;;;;7.53;6.83;;;10.30;99.90;;;;;;5054002;28;20186;-64
2021/05/26 01:22:50;;;;;;;7.75;6.75;;;10.30;99.90;;;;;;5053971;28;20188;-64
2021/05/26 01:25:16;;;;;;;7.32;6.22;;;10.40;99.90;;;;;;5053649;28;20586;-65
2021/05/26 01:27:42;;;;;;;8.60;6.70;;;10.40;99.90;;;;;;5036254;28;20276;-65
2021/05/26 01:30:08;;;;;;;8.60;7.70;;;10.30;99.90;;;;;;5053717;28;20487;-65
2021/05/26 01:32:46;;;;;;;9.50;7.88;;;10.50;99.90;;;;;;5053773;28;20165;-64
2021/05/26 01:35:13;;;;;;;9.50;7.18;;;10.50;99.90;;;;;;5053143;28;20204;-64
2021/05/26 01:37:41;;;;;;;9.05;8.10;;;10.50;99.90;;;;;;5053636;28;20176;-64
2021/05/26 01:40:08;;;;;;;11.40;8.60;;;10.50;99.90;;;;;;5053563;28;20582;-64
2021/05/26 01:42:34;;;;;;;8.35;7.50;;;10.50;99.90;;;;;;5053648;28;20263;-65
2021/05/26 01:45:01;;;;;;;8.80;7.90;;;10.40;99.90;;;;;;5052872;28;20250;-64
2021/05/26 01:47:26;;;;;;;8.95;8.05;;;10.40;99.90;;;;;;5053633;28;20184;-64
2021/05/26 01:49:52;;;;;;;9.00;8.10;;;10.40;99.90;;;;;;5053447;28;20204;-65
2021/05/26 01:52:18;;;;;;;9.37;8.43;;;10.60;99.90;;;;;;5035702;28;20176;-65
2021/05/26 01:54:43;;;;;;;11.60;8.97;;;10.70;99.90;;;;;;5035190;28;20176;-64
2021/05/26 01:57:09;;;;;;;8.40;7.47;;;10.60;99.90;;;;;;5052799;28;20242;-64
2021/05/26 01:59:34;;;;;;;9.90;8.90;;;10.60;99.90;;;;;;5035525;28;20184;-64
2021/05/26 02:02:00;;;;;;;10.77;8.97;;;10.60;99.90;;;;;;5035833;28;20176;-64
2021/05/26 02:04:26;;;;;;;9.57;8.53;;;10.60;99.90;;;;;;5052702;28;20267;-64
2021/05/26 02:06:59;;;;;;;10.43;8.40;;;10.50;99.90;;;;;;5053215;28;20188;-64
2021/05/26 02:09:25;;;;;;;8.88;7.70;;;10.50;99.90;;;;;;5053120;28;20212;-64
2021/05/26 02:14:35;;;;;;;10.35;8.35;;;10.50;99.90;;;;;;5052710;28;20238;-64
2021/05/26 02:17:00;;;;;;;9.83;8.53;;;10.60;99.90;;;;;;5052998;28;20188;-64
2021/05/26 02:19:26;;;;;;;9.30;8.20;;;10.70;99.90;;;;;;5053091;28;20191;-64
2021/05/26 02:21:51;;;;;;;9.10;8.30;;;10.60;99.90;;;;;;5053093;28;20212;-64
2021/05/26 02:24:17;;;;;;;9.20;8.30;;;10.60;99.90;;;;;;5052375;28;20267;-64
2021/05/26 02:26:42;;;;;;;9.13;8.23;;;10.40;99.90;;;;;;5052827;28;20192;-64
2021/05/26 02:29:08;;;;;;;8.70;7.80;;;10.40;99.90;;;;;;5053058;28;20204;-64
2021/05/26 02:31:34;;;;;;;10.70;7.90;;;10.40;99.90;;;;;;5052913;28;20177;-65
2021/05/26 02:34:00;;;;;;;9.73;8.20;;;10.50;99.90;;;;;;5034534;28;20212;-65
2021/05/26 02:36:26;;;;;;;11.40;8.57;;;10.50;99.90;;;;;;5052618;28;20212;-65
2021/05/26 02:38:51;;;;;;;10.67;9.00;;;10.60;99.90;;;;;;5053035;28;20192;-65
2021/05/26 02:41:17;;;;;;;9.40;8.40;;;10.60;99.90;;;;;;5052760;28;20801;-65
2021/05/26 02:43:42;;;;;;;9.53;8.53;;;10.60;99.90;;;;;;5052646;28;20619;-65
2021/05/26 02:46:08;;;;;;;9.97;8.93;;;10.60;99.90;;;;;;5052887;28;20173;-65
2021/05/26 02:48:33;;;;;;;8.77;7.10;;;10.60;99.90;;;;;;5052815;28;20526;-65
2021/05/26 02:50:59;;;;;;;9.00;7.67;;;10.60;99.90;;;;;;5052593;28;20209;-65
2021/05/26 02:53:24;;;;;;;12.67;8.23;;;10.50;99.90;;;;;;5052364;28;20184;-65
2021/05/26 02:55:50;;;;;;;8.73;7.77;;;10.50;99.90;;;;;;5052164;28;20231;-65
2021/05/26 02:58:15;;;;;;;9.60;8.70;;;10.50;99.90;;;;;;5052714;28;20495;-65
2021/05/26 03:00:41;;;;;;;8.70;7.30;;;10.30;99.90;;;;;;5052538;28;20208;-65
2021/05/26 03:03:07;;;;;;;10.77;7.67;;;10.40;99.90;;;;;;5052204;28;20517;-65
2021/05/26 03:05:32;;;;;;;7.87;7.03;;;10.40;99.90;;;;;;5052008;28;20191;-65
2021/05/26 03:07:58;;;;;;;9.00;8.10;;;10.30;99.90;;;;;;5052014;28;20561;-65
2021/05/26 03:10:24;;;;;;;8.57;7.77;;;10.30;99.90;;;;;;5056617;28;20291;-65
2021/05/26 03:12:50;;;;;;;9.40;7.20;;;10.20;99.90;;;;;;5056419;28;20595;-65
2021/05/26 03:15:17;;;;;;;9.63;8.63;;;10.40;99.90;;;;;;5056151;28;20173;-65
2021/05/26 03:17:43;;;;;;;10.45;9.35;;;10.20;99.90;;;;;;5056423;28;20218;-65
2021/05/26 03:20:13;;;;;;;11.70;8.95;;;10.10;99.90;;;;;;5056267;28;20187;-65
2021/05/26 03:22:39;;;;;;;19.98;10.90;;;10.20;99.90;;;;;;5056402;28;20187;-65
2021/05/26 03:25:06;;;;;;;12.10;10.40;;;10.10;99.90;;;;;;5056011;28;20185;-65
2021/05/26 03:27:36;;;;;;;15.63;10.05;;;10.10;99.90;;;;;;5056435;28;20431;-65
2021/05/26 03:30:08;;;;;;;11.55;10.35;;;10.20;99.90;;;;;;5056359;28;20212;-65
2021/05/26 03:32:33;;;;;;;11.52;10.02;;;10.40;99.90;;;;;;5056225;28;20196;-65
2021/05/26 03:35:00;;;;;;;12.73;9.80;;;10.20;99.90;;;;;;5055777;28;20220;-65
2021/05/26 03:37:26;;;;;;;12.77;10.27;;;10.30;99.90;;;;;;5056170;28;20169;-65
2021/05/26 03:39:52;;;;;;;11.50;10.25;;;10.20;99.90;;;;;;5056968;28;20191;-65
2021/05/26 03:42:17;;;;;;;11.37;10.17;;;10.20;99.90;;;;;;5057095;28;20181;-65
2021/05/26 03:44:43;;;;;;;12.00;10.30;;;10.10;99.90;;;;;;5055996;28;20188;-65
2021/05/26 03:47:09;;;;;;;14.27;10.23;;;10.20;99.90;;;;;;5056351;28;20172;-65
2021/05/26 03:49:34;;;;;;;12.60;11.07;;;10.20;99.90;;;;;;5056047;28;20703;-65
2021/05/26 03:52:00;;;;;;;15.43;11.00;;;10.30;99.90;;;;;;5056676;28;20213;-65
2021/05/26 03:54:25;;;;;;;12.80;10.00;;;10.30;99.90;;;;;;5056624;28;20177;-65
2021/05/26 03:56:51;;;;;;;11.33;9.93;;;10.20;99.90;;;;;;5057106;28;20169;-65
2021/05/26 03:59:16;;;;;;;11.77;10.57;;;10.20;99.90;;;;;;5056227;28;20263;-65
2021/05/26 04:01:42;;;;;;;11.20;9.60;;;10.20;99.90;;;;;;5056273;28;20172;-65
2021/05/26 04:04:08;;;;;;;12.87;10.77;;;10.40;99.90;;;;;;5055362;28;20176;-65
2021/05/26 04:06:37;;;;;;;12.57;10.00;;;10.60;99.90;;;;;;5055454;28;20181;-65
2021/05/26 04:09:03;;;;;;;16.95;12.95;;;10.80;99.90;;;;;;5055590;28;20199;-65
2021/05/26 04:11:29;;;;;;;14.63;11.82;;;11.80;99.90;;;;;;5055581;28;20519;-65
2021/05/26 04:13:55;;;;;;;13.47;11.73;;;12.10;99.90;;;;;;5054990;28;20246;-65
2021/05/26 04:16:20;;;;;;;11.80;10.60;;;12.20;29.90;;;;;;5055243;28;20173;-65
2021/05/26 04:18:46;;;;;;;11.87;10.67;;;12.20;89.90;;;;;;5054989;28;20199;-65
2021/05/26 04:21:11;;;;;;;11.80;10.70;;;11.90;11.90;;;;;;5054456;28;20213;-65
2021/05/26 04:23:37;;;;;;;12.23;10.23;;;11.50;51.00;;;;;;5055029;28;20291;-65
2021/05/26 04:26:03;;;;;;;12.40;10.60;;;11.10;99.90;;;;;;5037335;28;20262;-65
2021/05/26 04:28:29;;;;;;;12.73;10.20;;;10.90;99.90;;;;;;5037394;28;20177;-65
2021/05/26 04:30:54;;;;;;;11.40;10.20;;;11.00;99.90;;;;;;5054874;28;20389;-65
2021/05/26 04:33:24;;;;;;;12.87;10.83;;;11.40;99.90;;;;;;5054689;28;20199;-65
2021/05/26 04:35:50;;;;;;;11.77;10.52;;;11.60;99.90;;;;;;5054770;28;20187;-65
2021/05/26 04:38:15;;;;;;;11.37;10.20;;;11.60;99.90;;;;;;5054996;28;20268;-65
2021/05/26 04:40:41;;;;;;;12.23;11.00;;;11.80;99.90;;;;;;5055127;28;20664;-65
2021/05/26 04:43:06;;;;;;;11.47;9.50;;;11.70;99.90;;;;;;5054658;28;20208;-65
2021/05/26 04:45:32;;;;;;;10.10;9.03;;;11.60;99.90;;;;;;5054680;28;20680;-65
2021/05/26 04:47:59;;;;;;;11.40;9.70;;;11.40;99.90;;;;;;5054542;28;20276;-65
2021/05/26 04:50:25;;;;;;;9.77;8.85;;;12.50;91.10;;;;;;5054679;28;20236;-65
2021/05/26 04:52:50;;;;;;;11.93;9.40;;;14.60;1.00;;;;;;5054744;28;20215;-65
2021/05/26 04:55:16;;;;;;;10.77;8.60;;;16.00;99.90;;;;;;5054387;28;20583;-63
2021/05/26 04:57:42;;;;;;;8.93;8.10;;;16.80;9.40;;;;;;5054746;28;20238;-63
2021/05/26 05:00:08;;;;;;;9.13;8.23;;;16.00;99.90;;;;;;5054657;28;20188;-63
2021/05/26 05:02:33;;;;;;;10.10;8.23;;;15.10;1.00;;;;;;5037030;28;20185;-65
2021/05/26 05:04:59;;;;;;;9.33;8.47;;;14.40;1.00;;;;;;5054436;28;20682;-63
2021/05/26 05:07:24;;;;;;;10.03;9.03;;;13.50;1.00;;;;;;5054502;28;20200;-65
2021/05/26 05:09:50;;;;;;;10.30;8.50;;;13.10;99.90;;;;;;5036819;28;20212;-68
2021/05/26 05:12:16;;;;;;;13.03;9.47;;;12.90;1.00;;;;;;5054216;28;20519;-68
2021/05/26 05:14:41;;;;;;;10.17;9.13;;;12.80;1.00;;;;;;5053916;28;20188;-68
2021/05/26 05:17:07;;;;;;;10.30;9.30;;;13.00;1.00;;;;;;5036614;28;20652;-68
2021/05/26 05:19:33;;;;;;;11.00;9.80;;;12.70;1.00;;;;;;5054218;28;20189;-68
2021/05/26 05:21:58;;;;;;;11.50;9.53;;;12.80;1.00;;;;;;5052639;28;20188;-63
2021/05/26 05:24:24;;;;;;;11.27;10.17;;;12.80;1.00;;;;;;5054341;28;20185;-63
2021/05/26 05:26:50;;;;;;;12.57;10.00;;;12.60;1.00;;;;;;5054534;28;20177;-67
2021/05/26 05:29:16;;;;;;;14.30;9.83;;;12.30;1.00;;;;;;5054531;28;20205;-63
2021/05/26 05:31:41;;;;;;;12.10;9.00;;;12.20;1.00;;;;;;5054616;28;20431;-64
2021/05/26 05:34:07;;;;;;;11.27;10.10;;;12.10;2.60;;;;;;5054285;28;20192;-63
2021/05/26 05:36:32;;;;;;;12.50;10.17;;;12.10;5.40;;;;;;5054531;28;20200;-63
2021/05/26 05:38:58;;;;;;;12.50;10.33;;;12.10;1.00;;;;;;5036606;28;20173;-61
2021/05/26 05:41:24;;;;;;;11.03;10.03;;;12.50;2.50;;;;;;5051921;28;20177;-61
2021/05/26 05:43:49;;;;;;;10.20;9.20;;;12.80;1.00;;;;;;5053399;28;20184;-63
2021/05/26 05:46:15;;;;;;;10.70;9.10;;;12.70;1.00;;;;;;5054126;28;20187;-63
2021/05/26 05:48:41;;;;;;;10.77;9.77;;;12.50;1.00;;;;;;5054320;28;20178;-63
2021/05/26 05:51:06;;;;;;;12.10;10.33;;;12.60;1.00;;;;;;5036221;28;20253;-68
2021/05/26 05:53:32;;;;;;;11.70;10.50;;;12.70;1.00;;;;;;5036102;28;20239;-68
2021/05/26 05:56:00;;;;;;;11.10;9.60;;;13.10;1.00;;;;;;5053484;28;20438;-68
2021/05/26 05:58:26;;;;;;;12.18;10.48;;;13.20;1.00;;;;;;5035940;28;20183;-68
2021/05/26 06:00:52;;;;;;;12.67;11.37;;;12.90;1.00;;;;;;5053926;28;20260;-68
2021/05/26 06:03:17;;;;;;;11.57;10.33;;;13.00;1.00;;;;;;5036096;28;20435;-68
2021/05/26 06:05:43;;;;;;;11.27;10.17;;;13.00;1.00;;;;;;5053348;28;20426;-65
2021/05/26 06:08:08;;;;;;;10.90;9.77;;;13.00;1.00;;;;;;5053822;28;20177;-65
2021/05/26 06:10:34;;;;;;;12.73;10.20;;;12.70;1.00;;;;;;5053776;28;20205;-65
2021/05/26 06:13:02;;;;;;;11.30;10.10;;;12.60;1.00;;;;;;5053620;28;20546;-62
2021/05/26 06:15:28;;;;;;;12.02;9.27;;;12.80;1.00;;;;;;5035961;28;20177;-64
2021/05/26 06:17:57;;;;;;;13.47;10.23;;;13.20;1.00;;;;;;5053790;28;20675;-67
2021/05/26 06:20:22;;;;;;;11.75;10.38;;;13.50;1.00;;;;;;5053677;28;20326;-67
2021/05/26 06:22:48;;;;;;;11.07;9.10;;;13.40;1.00;;;;;;5053355;28;20259;-62
2021/05/26 06:25:14;;;;;;;11.73;9.17;;;13.20;1.00;;;;;;5053148;28;20177;-61
2021/05/26 06:27:40;;;;;;;10.13;9.13;;;13.20;1.00;;;;;;5053773;28;20184;-71
2021/05/26 06:30:06;;;;;;;9.87;8.67;;;13.60;1.00;;;;;;5053263;28;20204;-65
2021/05/26 06:32:35;;;;;;;12.23;9.55;;;13.60;1.00;;;;;;5053576;28;20724;-65
2021/05/26 06:35:00;;;;;;;10.68;9.57;;;13.30;1.00;;;;;;5053304;28;20201;-66
2021/05/26 06:37:26;;;;;;;12.90;9.10;;;12.80;1.00;;;;;;5053724;28;20213;-63
2021/05/26 06:39:51;;;;;;;10.23;9.23;;;12.60;1.00;;;;;;5053679;28;20247;-63
2021/05/26 06:42:18;;;;;;;10.23;9.17;;;12.60;29.80;;;;;;5052778;28;20529;-64
2021/05/26 06:44:43;;;;;;;9.80;8.70;;;12.60;51.40;;;;;;5053078;28;20250;-66
2021/05/26 06:47:09;;;;;;;9.30;8.40;;;12.50;52.90;;;;;;5053516;28;20509;-66
2021/05/26 06:49:35;;;;;;;9.70;8.03;;;11.90;95.90;;;;;;5035718;28;20226;-63
2021/05/26 06:52:01;;;;;;;9.40;8.23;;;11.90;99.90;;;;;;5053297;28;20415;-64
2021/05/26 06:54:26;;;;;;;10.00;8.27;;;11.60;99.90;;;;;;5052843;28;20219;-65
2021/05/26 06:57:02;;;;;;;9.60;8.20;;;11.80;99.90;;;;;;5053014;28;20178;-66
2021/05/26 07:02:44;;;;;;;11.05;5.72;;;11.60;99.90;;;;;;5044912;28;20523;-65
2021/05/26 07:05:10;;;;;;;6.87;6.17;;;11.10;99.90;;;;;;5051294;28;20180;-67
2021/05/26 07:07:36;;;;;;;5.88;5.35;;;11.00;99.90;;;;;;5053032;28;20193;-67
2021/05/26 07:10:02;;;;;;;5.10;4.50;;;11.00;99.90;;;;;;5050408;28;20212;-68
2021/05/26 07:12:27;;;;;;;5.43;4.80;;;11.20;99.90;;;;;;5052835;28;20234;-68
2021/05/26 07:14:53;;;;;;;4.80;4.33;;;11.20;99.90;;;;;;5052717;28;20611;-68
2021/05/26 07:17:19;;;;;;;5.73;5.27;;;11.30;99.90;;;;;;5053085;28;20204;-67
2021/05/26 07:19:48;;;;;;;3.90;3.50;;;11.30;99.90;;;;;;5035063;28;20315;-67
2021/05/26 07:22:13;;;;;;;5.22;4.72;;;11.40;99.90;;;;;;5052960;28;20522;-65
2021/05/26 07:24:39;;;;;;;5.10;4.60;;;11.50;99.90;;;;;;5034986;28;20283;-65
2021/05/26 07:27:05;;;;;;;5.93;5.33;;;11.20;99.90;;;;;;5052744;28;20184;-66
2021/05/26 07:29:33;;;;;;;6.27;4.40;;;10.90;99.90;;;;;;5052711;28;20327;-62
2021/05/26 07:31:59;;;;;;;4.35;3.50;;;10.60;99.90;;;;;;5053030;28;20426;-62
2021/05/26 07:34:25;;;;;;;3.97;3.00;;;10.70;99.90;;;;;;5052446;28;20177;-61
2021/05/26 07:36:53;;;;;;;3.40;3.13;;;10.50;99.90;;;;;;5053083;28;20598;-64
2021/05/26 07:39:19;;;;;;;4.63;4.15;;;10.70;99.90;;;;;;5052965;28;20759;-62
2021/05/26 07:41:45;;;;;;;4.80;4.30;;;11.10;99.90;;;;;;5052743;28;20239;-62
2021/05/26 07:44:10;;;;;;;5.47;4.97;;;11.10;99.90;;;;;;5051502;28;20669;-61
2021/05/26 07:46:36;;;;;;;5.33;4.83;;;11.40;99.90;;;;;;5052930;28;20185;-61
2021/05/26 07:49:02;;;;;;;6.73;6.00;;;11.70;99.90;;;;;;5052538;28;20181;-61
2021/05/26 07:51:30;;;;;;;8.57;7.20;;;11.80;99.90;;;;;;5035037;28;20260;-62
2021/05/26 07:53:56;;;;;;;9.95;8.68;;;12.10;99.90;;;;;;5034621;28;20437;-64
2021/05/26 07:56:22;;;;;;;10.65;9.65;;;12.60;99.90;;;;;;5055415;28;20626;-64
2021/05/26 07:58:47;;;;;;;12.87;10.90;;;13.30;99.90;;;;;;5056019;28;20197;-64
2021/05/26 08:01:13;;;;;;;15.30;10.93;;;13.40;99.90;;;;;;5055979;28;20177;-66
2021/05/26 08:03:39;;;;;;;18.30;13.30;;;13.50;40.60;;;;;;5055827;28;20184;-65
2021/05/26 08:06:04;;;;;;;15.17;11.47;;;13.40;1.00;;;;;;5056199;28;20192;-66
2021/05/26 08:08:30;;;;;;;19.10;12.70;;;13.20;1.00;;;;;;5056147;28;20176;-66
2021/05/26 08:10:59;;;;;;;13.00;11.60;;;13.00;51.90;;;;;;5055606;28;20429;-64
2021/05/26 08:13:24;;;;;;;13.60;11.93;;;13.00;99.90;;;;;;5055674;28;20748;-63
2021/05/26 08:15:50;;;;;;;17.97;12.60;;;13.10;99.90;;;;;;5055523;28;20173;-65
2021/05/26 08:18:19;;;;;;;14.37;11.70;;;13.10;99.90;;;;;;5055364;28;20551;-65
2021/05/26 08:20:47;;;;;;;18.45;13.25;;;13.40;99.90;;;;;;5055673;28;20602;-64
2021/05/26 08:23:13;;;;;;;14.95;11.90;;;13.50;7.80;;;;;;5055672;28;20176;-61
2021/05/26 08:25:39;;;;;;;12.27;10.63;;;13.80;1.00;;;;;;5055293;28;20192;-61
2021/05/26 08:28:05;;;;;;;13.47;11.23;;;13.50;1.00;;;;;;5055591;28;20197;-61
2021/05/26 08:30:31;;;;;;;13.80;11.37;;;13.50;8.20;;;;;;5055397;28;20214;-62
2021/05/26 08:32:56;;;;;;;16.77;12.03;;;13.80;31.50;;;;;;5055644;28;20419;-64
2021/05/26 08:35:22;;;;;;;12.40;10.90;;;14.00;1.00;;;;;;5037673;28;20515;-63
2021/05/26 08:37:48;;;;;;;17.67;13.15;;;13.70;1.00;;;;;;5036037;28;20184;-65
2021/05/26 08:40:13;;;;;;;14.47;11.17;;;13.90;1.00;;;;;;5055815;28;20513;-74
2021/05/26 08:42:43;;;;;;;15.07;12.00;;;13.80;1.00;;;;;;5037805;28;20683;-69
2021/05/26 08:45:09;;;;;;;17.10;11.40;;;13.80;1.00;;;;;;5055009;28;20197;-67
2021/05/26 08:47:36;;;;;;;14.40;10.77;;;13.90;1.00;;;;;;5055156;28;20695;-68
2021/05/26 08:50:03;;;;;;;11.60;10.23;;;14.50;1.00;;;;;;5055362;28;20236;-66
2021/05/26 08:52:29;;;;;;;13.00;11.27;;;14.70;1.00;;;;;;5055317;28;20180;-67
2021/05/26 08:54:54;;;;;;;18.77;11.20;;;14.70;1.00;;;;;;5053923;28;20630;-66
2021/05/26 08:57:20;;;;;;;17.80;11.37;;;15.10;1.00;;;;;;5048603;28;20637;-64
2021/05/26 08:59:46;;;;;;;10.97;9.87;;;15.70;1.00;;;;;;5054895;28;20224;-65
2021/05/26 09:02:13;;;;;;;10.70;9.60;;;15.90;99.90;;;;;;5054870;28;20235;-66
2021/05/26 09:04:41;;;;;;;13.98;10.18;;;15.90;99.90;;;;;;5036838;28;20848;-66
2021/05/26 09:07:17;;;;;;;13.17;9.10;;;16.00;99.90;;;;;;5054493;28;20189;-67
2021/05/26 09:09:55;;;;;;;11.15;8.63;;;15.60;1.00;;;;;;5054488;28;20803;-64
2021/05/26 09:12:25;;;;;;;10.60;9.50;;;15.50;99.90;;;;;;5054563;28;20244;-65
2021/05/26 09:14:51;;;;;;;10.40;8.57;;;15.70;99.90;;;;;;5053827;28;20530;-67
2021/05/26 09:17:16;;;;;;;9.10;7.83;;;15.80;99.90;;;;;;5036490;28;20598;-69
2021/05/26 09:19:42;;;;;;;10.13;8.87;;;15.90;99.90;;;;;;5054138;28;20428;-66
2021/05/26 09:22:18;;;;;;;11.33;8.93;;;15.70;1.00;;;;;;5054572;28;20176;-66
2021/05/26 09:24:43;;;;;;;12.02;9.52;;;15.80;99.90;;;;;;5054272;28;20234;-66
2021/05/26 09:27:11;;;;;;;9.17;7.47;;;16.20;36.90;;;;;;5054443;28;20189;-70
2021/05/26 09:29:46;;;;;;;48.27;18.37;;;16.40;1.00;;;;;;5036541;28;20205;-69
2021/05/26 09:32:13;;;;;;;17.10;8.70;;;16.20;1.00;;;;;;5049814;28;20434;-66
2021/05/26 09:34:41;;;;;;;8.02;6.57;;;15.30;1.00;;;;;;5050544;28;20260;-65
2021/05/26 09:37:11;;;;;;;9.32;6.85;;;14.80;1.00;;;;;;5049173;28;20196;-68
2021/05/26 09:39:43;;;;;;;9.38;7.38;;;14.10;99.90;;;;;;5049218;28;20230;-66
2021/05/26 09:42:28;;;;;;;9.30;7.50;;;13.40;1.00;;;;;;5033533;28;20196;-65
2021/05/26 09:45:07;;;;;;;9.57;7.13;;;13.40;1.00;;;;;;5050752;28;20181;-64
2021/05/26 09:47:51;;;;;;;11.77;7.90;;;13.60;39.20;;;;;;5054974;28;20173;-65
2021/05/26 09:50:34;;;;;;;17.23;9.02;;;14.00;40.10;;;;;;5053992;28;20204;-65
2021/05/26 09:53:16;;;;;;;9.40;7.47;;;14.70;1.00;;;;;;5054124;28;20173;-64
2021/05/26 09:55:46;;;;;;;9.98;7.22;;;15.10;1.00;;;;;;5051243;28;20597;-69
2021/05/26 09:58:13;;;;;;;8.95;7.40;;;15.50;1.00;;;;;;5036363;28;20181;-69
2021/05/26 10:00:41;;;;;;;9.70;7.55;;;15.80;99.90;;;;;;5054423;28;20288;-68
2021/05/26 10:03:07;;;;;;;8.82;6.97;;;15.40;99.90;;;;;;5054967;28;20185;-70
2021/05/26 10:05:34;;;;;;;7.93;6.68;;;15.30;1.00;;;;;;5038441;28;20207;-69
2021/05/26 10:08:01;;;;;;;9.63;6.30;;;15.40;1.00;;;;;;5037479;28;20621;-68
2021/05/26 10:10:31;;;;;;;6.30;5.80;;;15.50;99.90;;;;;;5056395;28;20211;-68
2021/05/26 10:12:59;;;;;;;6.50;5.90;;;15.90;99.90;;;;;;5055223;28;20184;-67
2021/05/26 10:15:29;;;;;;;6.20;5.60;;;15.90;1.00;;;;;;5036720;28;20438;-68
2021/05/26 10:17:57;;;;;;;7.37;5.80;;;16.10;99.90;;;;;;5052780;28;20188;-67
2021/05/26 10:20:31;;;;;;;6.20;5.60;;;16.20;1.00;;;;;;5053844;28;20489;-68
2021/05/26 10:23:00;;;;;;;6.60;5.40;;;16.60;1.00;;;;;;5035944;28;20454;-70
2021/05/26 10:25:25;;;;;;;7.30;4.63;;;16.30;1.00;;;;;;5053429;28;20459;-65
2021/05/26 10:27:53;;;;;;;6.70;4.00;;;16.10;99.90;;;;;;5053739;28;20446;-68
2021/05/26 10:30:21;;;;;;;4.47;4.07;;;15.60;1.00;;;;;;5035389;28;20594;-67
2021/05/26 10:32:55;;;;;;;5.10;4.30;;;15.00;1.00;;;;;;5053417;28;20181;-63
2021/05/26 10:35:23;;;;;;;6.55;4.13;;;14.90;99.90;;;;;;5053390;28;20730;-64
2021/05/26 10:38:06;;;;;;;5.57;4.15;;;15.20;99.90;;;;;;5053077;28;20509;-64
2021/05/26 10:40:43;;;;;;;4.43;4.03;;;15.70;99.90;;;;;;5053160;28;20184;-63
2021/05/26 10:43:21;;;;;;;4.63;4.22;;;15.70;1.00;;;;;;5053482;28;20183;-64
2021/05/26 10:45:48;;;;;;;5.53;5.07;;;15.80;99.90;;;;;;5053249;28;20180;-63
2021/05/26 10:48:34;;;;;;;5.03;4.53;;;15.60;1.00;;;;;;5053200;28;20930;-63
2021/05/26 10:51:00;;;;;;;9.43;4.80;;;15.80;99.90;;;;;;5053018;28;20216;-67
2021/05/26 10:53:56;;;;;;;6.03;5.27;;;15.70;21.20;;;;;;5053082;28;20309;-68
2021/05/26 10:56:36;;;;;;;5.70;4.55;;;15.30;15.90;;;;;;5052544;28;20238;-68
2021/05/26 10:59:12;;;;;;;4.70;4.23;;;15.80;1.00;;;;;;5035737;28;20180;-72
2021/05/26 11:02:03;;;;;;;4.20;3.87;;;16.70;99.90;;;;;;5053261;28;20415;-71
2021/05/26 11:04:29;;;;;;;4.63;4.23;;;17.30;1.00;;;;;;5035612;28;20442;-68
2021/05/26 11:07:18;;;;;;;4.73;3.53;;;17.50;14.10;;;;;;5035959;28;20872;-67
2021/05/26 11:10:07;;;;;;;4.37;3.90;;;17.40;2.20;;;;;;5053015;28;20465;-66
2021/05/26 11:12:54;;;;;;;4.27;3.33;;;17.20;99.90;;;;;;5022693;28;20797;-70
2021/05/26 11:15:39;;;;;;;4.53;4.13;;;17.00;1.00;;;;;;5052693;28;20791;-69
2021/05/26 11:18:29;;;;;;;4.97;3.90;;;17.10;99.90;;;;;;5052637;28;21898;-66
2021/05/26 11:20:55;;;;;;;5.10;4.60;;;17.00;1.00;;;;;;5052914;28;20430;-63
2021/05/26 11:23:21;;;;;;;5.47;4.43;;;16.50;1.00;;;;;;5053288;28;20427;-64
2021/05/26 11:25:57;;;;;;;5.70;4.90;;;16.20;99.90;;;;;;5052472;28;20189;-60
2021/05/26 11:28:31;;;;;;;7.03;4.80;;;15.70;1.00;;;;;;5052786;28;20224;-60
2021/05/26 11:31:08;;;;;;;5.90;5.23;;;15.80;27.20;;;;;;5036574;28;20240;-60
2021/05/26 11:33:34;;;;;;;5.38;4.75;;;15.50;99.90;;;;;;5036666;28;20429;-64
2021/05/26 11:36:04;;;;;;;4.93;4.50;;;15.20;99.90;;;;;;5018949;28;20276;-65
2021/05/26 11:38:31;;;;;;;5.27;4.77;;;15.30;99.90;;;;;;5037042;28;20435;-63
2021/05/26 11:40:58;;;;;;;5.63;4.38;;;15.80;1.00;;;;;;5036792;28;20434;-61
2021/05/26 11:43:24;;;;;;;6.70;4.18;;;15.80;1.00;;;;;;5036843;28;20174;-62
2021/05/26 11:46:07;;;;;;;4.50;4.10;;;15.60;99.90;;;;;;5036826;28;20251;-66
2021/05/26 11:48:33;;;;;;;6.45;4.32;;;15.60;1.00;;;;;;5036327;28;20567;-66
2021/05/26 11:51:00;;;;;;;4.80;4.27;;;15.80;99.90;;;;;;5036946;28;20216;-66
2021/05/26 11:53:26;;;;;;;4.40;4.00;;;15.70;1.00;;;;;;5019128;28;20630;-65
2021/05/26 11:55:58;;;;;;;6.13;5.47;;;15.00;99.90;;;;;;5036223;28;20192;-67
2021/05/26 11:58:39;;;;;;;6.10;4.45;;;14.90;99.90;;;;;;5036572;28;20308;-68
2021/05/26 12:01:08;;;;;;;5.40;4.88;;;14.80;99.90;;;;;;5036083;28;20608;-62
2021/05/26 12:03:34;;;;;;;4.40;4.00;;;15.40;1.00;;;;;;5036535;28;20173;-65
2021/05/26 12:06:01;;;;;;;5.40;4.73;;;15.90;99.90;;;;;;5036100;28;20428;-64
2021/05/26 12:08:28;;;;;;;5.00;4.50;;;15.80;1.00;;;;;;5044065;28;20553;-65
2021/05/26 12:10:55;;;;;;;5.60;4.60;;;15.70;23.80;;;;;;5047519;28;20471;-65
2021/05/26 12:13:25;;;;;;;4.67;4.23;;;15.70;99.90;;;;;;5055891;28;20420;-63
2021/05/26 12:15:53;;;;;;;6.07;4.73;;;15.90;99.90;;;;;;5055797;28;20749;-67
2021/05/26 12:18:19;;;;;;;4.90;4.40;;;16.00;99.90;;;;;;5051455;28;20451;-65
2021/05/26 12:20:47;;;;;;;7.72;5.22;;;16.00;99.90;;;;;;5052605;28;20514;-65
2021/05/26 12:23:13;;;;;;;8.07;5.38;;;15.50;99.90;;;;;;5055883;28;20183;-64
2021/05/26 12:25:47;;;;;;;6.13;4.90;;;15.20;99.90;;;;;;5056048;28;20176;-64
2021/05/26 12:28:17;;;;;;;6.28;5.60;;;15.00;99.90;;;;;;5056038;28;20263;-66
2021/05/26 12:30:43;;;;;;;9.23;6.47;;;15.00;99.90;;;;;;5056017;28;20222;-66
2021/05/26 12:33:13;;;;;;;8.23;6.65;;;14.90;1.00;;;;;;5055989;28;20434;-65
2021/05/26 12:35:39;;;;;;;7.78;6.38;;;15.10;99.90;;;;;;5055167;28;20537;-63
2021/05/26 12:38:19;;;;;;;8.47;7.57;;;15.60;99.90;;;;;;5055635;28;20177;-65
2021/05/26 12:40:46;;;;;;;10.43;6.75;;;15.80;76.50;;;;;;5054522;28;20187;-63
2021/05/26 12:43:30;;;;;;;7.77;7.07;;;16.20;30.70;;;;;;5055652;28;20256;-64
2021/05/26 12:45:56;;;;;;;8.30;6.55;;;16.40;99.90;;;;;;5055294;28;20423;-66
2021/05/26 12:48:22;;;;;;;6.53;5.93;;;16.40;99.90;;;;;;5037939;28;20177;-66
2021/05/26 12:50:49;;;;;;;7.63;6.83;;;16.70;99.90;;;;;;5037583;28;20501;-65
2021/05/26 12:53:17;;;;;;;7.87;7.07;;;16.70;1.00;;;;;;5054958;28;20419;-66